Time,TemperatureF,DewpointF,PressureIn,WindDirection,WindDirectionDegrees,WindSpeedMPH,WindSpeedGustMPH,Humidity,HourlyPrecipIn,Conditions,Clouds,dailyrainin,SoftwareType,DateUTC
2013-09-03 00:00:00,74.0,72.5,29.80,North,0,0.0,0.0,95,0.00,,,0.00,WUHU216DAVISVP2,2013-09-03 04:00:00,
2013-09-03 00:10:00,73.9,72.4,29.80,North,0,0.0,0.0,95,0.00,,,0.00,WUHU216DAVISVP2,2013-09-03 04:10:00,
2013-09-03 00:17:00,76.0,73.8,29.81,NNW,344,4.0,11.0,93,0.18,,,0.22,WUHU216DAVISVP2,2013-09-03 04:17:00,
2013-09-03 00:20:00,74.1,72.9,29.81,NNW,338,0.0,1.0,96,0.00,,,0.00,WUHU216DAVISVP2,2013-09-03 04:20:00,
2013-09-03 00:30:00,74.5,73.3,29.81,North,0,0.0,1.0,96,0.00,,,0.00,WUHU216DAVISVP2,2013-09-03 04:30:00,
2013-09-03 00:39:00,76.0,73.8,29.81,NNW,344,4.0,11.0,93,0.18,,,0.22,WUHU216DAVISVP2,2013-09-03 04:39:00,
2013-09-03 00:40:00,74.6,73.4,29.80,WSW,248,0.0,2.0,96,0.00,,,0.00,WUHU216DAVISVP2,2013-09-03 04:40:00,
2013-09-03 00:50:00,74.5,73.3,29.81,North,0,0.0,2.0,96,0.00,,,0.00,WUHU216DAVISVP2,2013-09-03 04:50:00,
2013-09-03 01:00:00,74.4,73.2,29.81,North,0,0.0,0.0,96,0.00,,,0.00,WUHU216DAVISVP2,2013-09-03 05:00:00,
2013-09-03 01:10:00,74.4,73.2,29.81,North,0,0.0,0.0,96,0.00,,,0.00,WUHU216DAVISVP2,2013-09-03 05:10:00,
2013-09-03 01:11:00,76.0,73.8,29.81,NNW,344,4.0,11.0,93,0.18,,,0.22,WUHU216DAVISVP2,2013-09-03 05:11:00,
2013-09-03 01:16:00,76.0,73.8,29.81,NNW,344,4.0,11.0,93,0.18,,,0.22,WUHU216DAVISVP2,2013-09-03 05:16:00,
2013-09-03 01:20:00,74.4,73.2,29.82,WSW,248,0.0,1.0,96,0.00,,,0.00,WUHU216DAVISVP2,2013-09-03 05:20:00,
2013-09-03 01:30:00,74.2,73.0,29.81,North,0,0.0,1.0,96,0.00,,,0.00,WUHU216DAVISVP2,2013-09-03 05:30:00,
2013-09-03 01:40:00,74.1,72.9,29.82,North,0,0.0,0.0,96,0.00,,,0.00,WUHU216DAVISVP2,2013-09-03 05:40:00,
2013-09-03 01:49:00,76.0,73.8,29.81,NNW,344,4.0,11.0,93,0.18,,,0.22,WUHU216DAVISVP2,2013-09-03 05:49:00,
2013-09-03 01:50:00,73.9,72.7,29.81,WSW,248,0.0,1.0,96,0.00,,,0.00,WUHU216DAVISVP2,2013-09-03 05:50:00,
2013-09-03 01:57:00,76.0,73.8,29.81,NNW,344,4.0,11.0,93,0.18,,,0.22,WUHU216DAVISVP2,2013-09-03 05:57:00,
2013-09-03 02:00:00,73.7,72.5,29.81,North,0,0.0,1.0,96,0.00,,,0.00,WUHU216DAVISVP2,2013-09-03 06:00:00,
2013-09-03 02:10:00,73.4,72.2,29.81,North,0,0.0,0.0,96,0.00,,,0.00,WUHU216DAVISVP2,2013-09-03 06:10:00,
2013-09-03 02:12:00,76.0,73.8,29.81,NNW,344,4.0,11.0,93,0.18,,,0.22,WUHU216DAVISVP2,2013-09-03 06:12:00,
2013-09-03 02:19:00,76.0,73.8,29.81,NNW,344,4.0,11.0,93,0.18,,,0.22,WUHU216DAVISVP2,2013-09-03 06:19:00,
2013-09-03 02:20:00,73.1,71.9,29.81,North,0,0.0,0.0,96,0.00,,,0.00,WUHU216DAVISVP2,2013-09-03 06:20:00,
2013-09-03 02:30:00,73.0,71.8,29.80,North,0,0.0,0.0,96,0.00,,,0.00,WUHU216DAVISVP2,2013-09-03 06:30:00,
2013-09-03 02:40:00,72.9,71.7,29.80,North,0,0.0,0.0,96,0.00,,,0.00,WUHU216DAVISVP2,2013-09-03 06:40:00,
2013-09-03 02:50:00,72.8,71.6,29.80,North,0,0.0,0.0,96,0.00,,,0.00,WUHU216DAVISVP2,2013-09-03 06:50:00,
2013-09-03 02:53:00,76.0,73.8,29.81,NNW,344,4.0,11.0,93,0.18,,,0.22,WUHU216DAVISVP2,2013-09-03 06:53:00,
2013-09-03 03:00:00,72.6,71.4,29.80,North,0,0.0,0.0,96,0.00,,,0.00,WUHU216DAVISVP2,2013-09-03 07:00:00,
2013-09-03 03:06:00,76.0,73.8,29.81,NNW,344,4.0,11.0,93,0.18,,,0.22,WUHU216DAVISVP2,2013-09-03 07:06:00,
2013-09-03 03:10:00,72.4,71.2,29.80,WSW,248,0.0,1.0,96,0.00,,,0.00,WUHU216DAVISVP2,2013-09-03 07:10:00,
2013-09-03 03:15:00,76.0,73.8,29.81,NNW,344,4.0,11.0,93,0.18,,,0.22,WUHU216DAVISVP2,2013-09-03 07:15:00,
2013-09-03 03:20:00,72.3,71.1,29.79,WSW,248,0.0,1.0,96,0.00,,,0.00,WUHU216DAVISVP2,2013-09-03 07:20:00,
2013-09-03 03:24:00,76.0,73.8,29.81,NNW,344,4.0,11.0,93,0.18,,,0.22,WUHU216DAVISVP2,2013-09-03 07:24:00,
2013-09-03 03:30:00,72.2,71.0,29.80,North,0,0.0,1.0,96,0.00,,,0.00,WUHU216DAVISVP2,2013-09-03 07:30:00,
2013-09-03 03:38:00,76.0,73.8,29.81,NNW,344,4.0,11.0,93,0.18,,,0.22,WUHU216DAVISVP2,2013-09-03 07:38:00,
2013-09-03 03:40:00,72.0,70.8,29.80,North,0,0.0,0.0,96,0.00,,,0.00,WUHU216DAVISVP2,2013-09-03 07:40:00,
2013-09-03 03:47:00,76.0,73.8,29.81,NNW,344,4.0,11.0,93,0.18,,,0.22,WUHU216DAVISVP2,2013-09-03 07:47:00,
2013-09-03 03:50:00,72.0,70.8,29.80,North,0,0.0,0.0,96,0.00,,,0.00,WUHU216DAVISVP2,2013-09-03 07:50:00,
2013-09-03 03:59:00,76.0,73.8,29.81,NNW,344,4.0,11.0,93,0.18,,,0.22,WUHU216DAVISVP2,2013-09-03 07:59:00,
2013-09-03 04:00:00,71.7,70.5,29.79,North,0,0.0,0.0,96,0.00,,,0.00,WUHU216DAVISVP2,2013-09-03 08:00:00,
2013-09-03 04:05:00,76.0,73.8,29.81,NNW,344,4.0,11.0,93,0.18,,,0.22,WUHU216DAVISVP2,2013-09-03 08:05:00,
2013-09-03 04:10:00,71.5,70.3,29.80,North,0,0.0,0.0,96,0.00,,,0.00,WUHU216DAVISVP2,2013-09-03 08:10:00,
2013-09-03 04:11:00,76.0,73.8,29.81,NNW,344,4.0,11.0,93,0.18,,,0.22,WUHU216DAVISVP2,2013-09-03 08:11:00,
2013-09-03 04:20:00,71.2,70.0,29.80,North,0,0.0,0.0,96,0.00,,,0.00,WUHU216DAVISVP2,2013-09-03 08:20:00,
2013-09-03 04:25:00,76.0,73.8,29.81,NNW,344,4.0,11.0,93,0.18,,,0.22,WUHU216DAVISVP2,2013-09-03 08:25:00,
2013-09-03 04:30:00,71.0,69.8,29.80,North,0,0.0,0.0,96,0.00,,,0.00,WUHU216DAVISVP2,2013-09-03 08:30:00,
2013-09-03 04:32:00,76.0,73.8,29.81,NNW,344,4.0,11.0,93,0.18,,,0.22,WUHU216DAVISVP2,2013-09-03 08:32:00,
2013-09-03 04:37:00,76.0,73.8,29.81,NNW,344,4.0,11.0,93,0.18,,,0.22,WUHU216DAVISVP2,2013-09-03 08:37:00,
2013-09-03 04:40:00,70.9,70.0,29.80,North,0,0.0,0.0,97,0.00,,,0.00,WUHU216DAVISVP2,2013-09-03 08:40:00,
2013-09-03 04:50:00,71.0,70.1,29.80,North,0,0.0,0.0,97,0.00,,,0.00,WUHU216DAVISVP2,2013-09-03 08:50:00,
2013-09-03 04:53:00,76.0,73.8,29.81,NNW,344,4.0,11.0,93,0.18,,,0.22,WUHU216DAVISVP2,2013-09-03 08:53:00,
2013-09-03 04:58:00,76.0,73.8,29.81,NNW,344,4.0,11.0,93,0.18,,,0.22,WUHU216DAVISVP2,2013-09-03 08:58:00,
2013-09-03 05:00:00,70.9,70.0,29.80,North,0,0.0,0.0,97,0.00,,,0.00,WUHU216DAVISVP2,2013-09-03 09:00:00,
2013-09-03 05:10:00,76.0,73.8,29.81,NNW,344,4.0,11.0,93,0.18,,,0.22,WUHU216DAVISVP2,2013-09-03 09:10:00,
2013-09-03 05:20:00,70.5,69.6,29.79,North,0,0.0,0.0,97,0.00,,,0.00,WUHU216DAVISVP2,2013-09-03 09:20:00,
2013-09-03 05:22:00,76.0,73.8,29.81,NNW,344,4.0,11.0,93,0.18,,,0.22,WUHU216DAVISVP2,2013-09-03 09:22:00,
2013-09-03 05:30:00,70.5,69.6,29.79,North,0,0.0,0.0,97,0.00,,,0.00,WUHU216DAVISVP2,2013-09-03 09:30:00,
2013-09-03 05:35:00,76.0,73.8,29.81,NNW,344,4.0,11.0,93,0.18,,,0.22,WUHU216DAVISVP2,2013-09-03 09:35:00,
2013-09-03 05:40:00,70.4,69.5,29.79,North,0,0.0,0.0,97,0.00,,,0.00,WUHU216DAVISVP2,2013-09-03 09:40:00,
2013-09-03 05:50:00,70.4,69.5,29.79,North,0,0.0,0.0,97,0.00,,,0.00,WUHU216DAVISVP2,2013-09-03 09:50:00,
2013-09-03 06:00:00,70.4,69.5,29.80,North,0,0.0,0.0,97,0.00,,,0.00,WUHU216DAVISVP2,2013-09-03 10:00:00,
2013-09-03 06:08:00,76.0,73.8,29.81,NNW,344,4.0,11.0,93,0.18,,,0.22,WUHU216DAVISVP2,2013-09-03 10:08:00,
2013-09-03 06:10:00,70.3,69.4,29.80,North,0,0.0,0.0,97,0.00,,,0.00,WUHU216DAVISVP2,2013-09-03 10:10:00,
2013-09-03 06:14:00,76.0,73.8,29.81,NNW,344,4.0,11.0,93,0.18,,,0.22,WUHU216DAVISVP2,2013-09-03 10:14:00,
2013-09-03 06:20:00,70.1,69.2,29.80,North,0,0.0,0.0,97,0.01,,,0.01,WUHU216DAVISVP2,2013-09-03 10:20:00,
2013-09-03 06:21:00,76.0,73.8,29.81,NNW,344,4.0,11.0,93,0.18,,,0.22,WUHU216DAVISVP2,2013-09-03 10:21:00,
2013-09-03 06:30:00,70.0,69.1,29.80,North,0,0.0,0.0,97,0.01,,,0.01,WUHU216DAVISVP2,2013-09-03 10:30:00,
2013-09-03 06:38:00,76.0,73.8,29.81,NNW,344,4.0,11.0,93,0.18,,,0.22,WUHU216DAVISVP2,2013-09-03 10:38:00,
2013-09-03 06:40:00,69.9,69.0,29.80,North,0,0.0,0.0,97,0.01,,,0.01,WUHU216DAVISVP2,2013-09-03 10:40:00,
2013-09-03 06:44:00,76.0,73.8,29.81,NNW,344,4.0,11.0,93,0.18,,,0.22,WUHU216DAVISVP2,2013-09-03 10:44:00,
2013-09-03 06:49:00,76.0,73.8,29.81,NNW,344,4.0,11.0,93,0.18,,,0.22,WUHU216DAVISVP2,2013-09-03 10:49:00,
2013-09-03 06:50:00,70.1,69.2,29.81,North,0,0.0,0.0,97,0.01,,,0.01,WUHU216DAVISVP2,2013-09-03 10:50:00,
2013-09-03 06:54:00,76.0,73.8,29.81,NNW,344,4.0,11.0,93,0.18,,,0.22,WUHU216DAVISVP2,2013-09-03 10:54:00,
2013-09-03 07:00:00,70.8,69.9,29.81,SSW,203,0.0,3.0,97,0.01,,,0.01,WUHU216DAVISVP2,2013-09-03 11:00:00,
2013-09-03 07:10:00,72.0,71.1,29.82,SSW,203,0.0,3.0,97,0.00,,,0.01,WUHU216DAVISVP2,2013-09-03 11:10:00,
2013-09-03 07:20:00,72.7,71.8,29.82,South,180,0.0,3.0,97,0.00,,,0.01,WUHU216DAVISVP2,2013-09-03 11:20:00,
2013-09-03 07:24:00,76.0,73.8,29.81,NNW,344,4.0,11.0,93,0.18,,,0.22,WUHU216DAVISVP2,2013-09-03 11:24:00,
2013-09-03 07:30:00,73.0,72.1,29.83,South,180,0.0,3.0,97,0.00,,,0.01,WUHU216DAVISVP2,2013-09-03 11:30:00,
2013-09-03 07:40:00,73.3,72.4,29.83,WSW,248,0.0,3.0,97,0.00,,,0.01,WUHU216DAVISVP2,2013-09-03 11:40:00,
2013-09-03 07:43:00,76.0,73.8,29.81,NNW,344,4.0,11.0,93,0.18,,,0.22,WUHU216DAVISVP2,2013-09-03 11:43:00,
2013-09-03 07:50:00,73.6,72.7,29.83,WSW,248,0.0,2.0,97,0.00,,,0.01,WUHU216DAVISVP2,2013-09-03 11:50:00,
2013-09-03 08:00:00,73.8,72.9,29.84,SW,225,0.0,3.0,97,0.00,,,0.01,WUHU216DAVISVP2,2013-09-03 12:00:00,
2013-09-03 08:04:00,76.0,73.8,29.81,NNW,344,4.0,11.0,93,0.18,,,0.22,WUHU216DAVISVP2,2013-09-03 12:04:00,
2013-09-03 08:10:00,74.0,73.1,29.84,SW,225,0.0,3.0,97,0.00,,,0.01,WUHU216DAVISVP2,2013-09-03 12:10:00,
2013-09-03 08:19:00,76.0,73.8,29.81,NNW,344,4.0,11.0,93,0.18,,,0.22,WUHU216DAVISVP2,2013-09-03 12:19:00,
2013-09-03 08:20:00,74.4,73.5,29.85,South,180,0.0,3.0,97,0.00,,,0.01,WUHU216DAVISVP2,2013-09-03 12:20:00,
2013-09-03 08:25:00,76.0,73.8,29.81,NNW,344,4.0,11.0,93,0.18,,,0.22,WUHU216DAVISVP2,2013-09-03 12:25:00,
2013-09-03 08:30:00,76.0,73.8,29.81,NNW,344,4.0,11.0,93,0.18,,,0.22,WUHU216DAVISVP2,2013-09-03 12:30:00,
2013-09-03 08:40:00,74.7,73.8,29.86,South,180,1.0,5.0,97,0.00,,,0.01,WUHU216DAVISVP2,2013-09-03 12:40:00,
2013-09-03 08:50:00,74.7,73.8,29.86,SSW,203,1.0,6.0,97,0.00,,,0.01,WUHU216DAVISVP2,2013-09-03 12:50:00,
2013-09-03 08:59:00,76.0,73.8,29.81,NNW,344,4.0,11.0,93,0.18,,,0.22,WUHU216DAVISVP2,2013-09-03 12:59:00,
2013-09-03 09:00:00,74.8,73.6,29.87,SSW,203,1.0,6.0,96,0.00,,,0.01,WUHU216DAVISVP2,2013-09-03 13:00:00,
2013-09-03 09:04:00,76.0,73.8,29.81,NNW,344,4.0,11.0,93,0.18,,,0.22,WUHU216DAVISVP2,2013-09-03 13:04:00,
2013-09-03 09:10:00,75.2,74.0,29.86,SSW,203,0.0,4.0,96,0.00,,,0.01,WUHU216DAVISVP2,2013-09-03 13:10:00,
2013-09-03 09:11:00,76.0,73.8,29.81,NNW,344,4.0,11.0,93,0.18,,,0.22,WUHU216DAVISVP2,2013-09-03 13:11:00,
2013-09-03 09:20:00,75.7,74.5,29.87,WSW,248,1.0,5.0,96,0.00,,,0.01,WUHU216DAVISVP2,2013-09-03 13:20:00,
2013-09-03 09:29:00,76.0,73.8,29.81,NNW,344,4.0,11.0,93,0.18,,,0.22,WUHU216DAVISVP2,2013-09-03 13:29:00,
2013-09-03 09:30:00,76.0,74.1,29.86,SSW,203,2.0,5.0,94,0.00,,,0.01,WUHU216DAVISVP2,2013-09-03 13:30:00,
2013-09-03 09:37:00,76.0,73.8,29.81,NNW,344,4.0,11.0,93,0.18,,,0.22,WUHU216DAVISVP2,2013-09-03 13:37:00,
2013-09-03 09:40:00,76.4,73.9,29.85,SSW,203,1.0,5.0,92,0.00,,,0.01,WUHU216DAVISVP2,2013-09-03 13:40:00,
2013-09-03 09:49:00,76.0,73.8,29.81,NNW,344,4.0,11.0,93,0.18,,,0.22,WUHU216DAVISVP2,2013-09-03 13:49:00,
2013-09-03 09:50:00,77.0,73.8,29.86,WNW,293,1.0,6.0,90,0.00,,,0.01,WUHU216DAVISVP2,2013-09-03 13:50:00,
2013-09-03 09:57:00,76.0,73.8,29.81,NNW,344,4.0,11.0,93,0.18,,,0.22,WUHU216DAVISVP2,2013-09-03 13:57:00,
2013-09-03 10:00:00,77.6,74.1,29.86,SW,225,1.0,7.0,89,0.00,,,0.01,WUHU216DAVISVP2,2013-09-03 14:00:00,
2013-09-03 10:08:00,76.0,73.8,29.81,NNW,344,4.0,11.0,93,0.18,,,0.22,WUHU216DAVISVP2,2013-09-03 14:08:00,
2013-09-03 10:10:00,77.6,74.1,29.86,South,180,2.0,7.0,89,0.00,,,0.01,WUHU216DAVISVP2,2013-09-03 14:10:00,
2013-09-03 10:13:00,76.0,73.8,29.81,NNW,344,4.0,11.0,93,0.18,,,0.22,WUHU216DAVISVP2,2013-09-03 14:13:00,
2013-09-03 10:20:00,77.7,74.2,29.86,SSW,203,2.0,7.0,89,0.00,,,0.01,WUHU216DAVISVP2,2013-09-03 14:20:00,
2013-09-03 10:30:00,78.7,74.2,29.86,SSW,203,2.0,9.0,86,0.00,,,0.01,WUHU216DAVISVP2,2013-09-03 14:30:00,
2013-09-03 10:33:00,76.0,73.8,29.81,NNW,344,4.0,11.0,93,0.18,,,0.22,WUHU216DAVISVP2,2013-09-03 14:33:00,
2013-09-03 10:40:00,79.0,74.1,29.86,South,180,2.0,9.0,85,0.00,,,0.01,WUHU216DAVISVP2,2013-09-03 14:40:00,
2013-09-03 10:50:00,78.6,73.7,29.86,SSW,203,2.0,6.0,85,0.00,,,0.01,WUHU216DAVISVP2,2013-09-03 14:50:00,
2013-09-03 10:55:00,76.0,73.8,29.81,NNW,344,4.0,11.0,93,0.18,,,0.22,WUHU216DAVISVP2,2013-09-03 14:55:00,
2013-09-03 11:00:00,78.8,73.6,29.86,SSE,158,1.0,6.0,84,0.00,,,0.01,WUHU216DAVISVP2,2013-09-03 15:00:00,
2013-09-03 11:03:00,76.0,73.8,29.81,NNW,344,4.0,11.0,93,0.18,,,0.22,WUHU216DAVISVP2,2013-09-03 15:03:00,
2013-09-03 11:10:00,79.3,73.7,29.86,South,180,1.0,5.0,83,0.00,,,0.01,WUHU216DAVISVP2,2013-09-03 15:10:00,
2013-09-03 11:18:00,76.0,73.8,29.81,NNW,344,4.0,11.0,93,0.18,,,0.22,WUHU216DAVISVP2,2013-09-03 15:18:00,
2013-09-03 11:20:00,80.3,73.9,29.85,SW,225,1.0,5.0,81,0.00,,,0.01,WUHU216DAVISVP2,2013-09-03 15:20:00,
2013-09-03 11:30:00,81.5,74.0,29.85,South,180,1.0,5.0,78,0.00,,,0.01,WUHU216DAVISVP2,2013-09-03 15:30:00,
2013-09-03 11:40:00,83.0,74.3,29.86,SW,225,1.0,6.0,75,0.00,,,0.01,WUHU216DAVISVP2,2013-09-03 15:40:00,
2013-09-03 11:47:00,76.0,73.8,29.81,NNW,344,4.0,11.0,93,0.18,,,0.22,WUHU216DAVISVP2,2013-09-03 15:47:00,
2013-09-03 11:50:00,83.7,74.5,29.86,SW,225,1.0,6.0,74,0.00,,,0.01,WUHU216DAVISVP2,2013-09-03 15:50:00,
2013-09-03 11:52:00,76.0,73.8,29.81,NNW,344,4.0,11.0,93,0.18,,,0.22,WUHU216DAVISVP2,2013-09-03 15:52:00,
2013-09-03 12:00:00,84.5,74.5,29.85,South,180,2.0,7.0,72,0.00,,,0.01,WUHU216DAVISVP2,2013-09-03 16:00:00,
2013-09-03 12:10:00,85.4,74.9,29.85,SSW,203,2.0,7.0,71,0.00,,,0.01,WUHU216DAVISVP2,2013-09-03 16:10:00,
2013-09-03 12:15:00,86.1,75.2,29.85,WSW,245,0.0,6.0,70,0.00,,,0.01,WUHU216DAVISVP2,2013-09-03 16:15:00,
2013-09-03 12:20:00,85.7,75.5,29.86,NNW,341,4.0,8.0,71,0.00,,,0.01,WUHU216DAVISVP2,2013-09-03 16:20:00,
2013-09-03 12:25:00,83.8,71.9,29.86,WNW,294,3.0,13.0,67,0.00,,,0.01,WUHU216DAVISVP2,2013-09-03 16:25:00,
2013-09-03 12:30:00,80.7,69.0,29.85,NNE,16,14.0,16.0,67,0.00,,,0.01,WUHU216DAVISVP2,2013-09-03 16:30:00,
2013-09-03 12:35:00,76.8,70.3,29.86,WNW,300,21.0,21.0,80,0.10,,,0.13,WUHU216DAVISVP2,2013-09-03 16:35:00,
2013-09-03 12:40:00,73.5,67.4,29.86,ENE,60,4.0,44.0,81,0.36,,,0.37,WUHU216DAVISVP2,2013-09-03 16:40:00,
2013-09-03 12:45:00,72.3,66.9,29.85,SE,146,3.0,44.0,83,0.45,,,0.46,WUHU216DAVISVP2,2013-09-03 16:45:00,
2013-09-03 12:50:00,70.8,65.4,29.84,SSW,196,0.0,44.0,83,0.47,,,0.48,WUHU216DAVISVP2,2013-09-03 16:50:00,
2013-09-03 12:55:00,70.1,66.7,29.85,SSW,196,0.0,30.0,89,0.56,,,0.58,WUHU216DAVISVP2,2013-09-03 16:55:00,
2013-09-03 13:00:00,69.8,67.0,29.84,SSW,196,1.0,8.0,91,0.60,,,0.61,WUHU216DAVISVP2,2013-09-03 17:00:00,
2013-09-03 13:05:00,69.6,67.5,29.84,SSW,196,0.0,3.0,93,0.62,,,0.63,WUHU216DAVISVP2,2013-09-03 17:05:00,
2013-09-03 13:10:00,69.9,68.1,29.83,SSW,196,0.0,1.0,94,0.62,,,0.63,WUHU216DAVISVP2,2013-09-03 17:10:00,
2013-09-03 13:15:00,70.9,69.7,29.83,SSW,196,0.0,1.0,96,0.62,,,0.63,WUHU216DAVISVP2,2013-09-03 17:15:00,
2013-09-03 13:20:00,72.5,71.3,29.83,SSW,196,0.0,1.0,96,0.62,,,0.63,WUHU216DAVISVP2,2013-09-03 17:20:00,
2013-09-03 13:25:00,73.0,71.5,29.82,SSW,196,1.0,1.0,95,0.62,,,0.63,WUHU216DAVISVP2,2013-09-03 17:25:00,
2013-09-03 13:30:00,73.3,72.1,29.82,SSW,196,0.0,1.0,96,0.62,,,0.63,WUHU216DAVISVP2,2013-09-03 17:30:00,
2013-09-03 13:35:00,74.7,73.5,29.82,SSW,196,0.0,1.0,96,0.50,,,0.63,WUHU216DAVISVP2,2013-09-03 17:35:00,
2013-09-03 13:40:00,75.8,74.6,29.83,NE,36,2.0,3.0,96,0.26,,,0.63,WUHU216DAVISVP2,2013-09-03 17:40:00,
2013-09-03 13:45:00,76.3,74.7,29.83,West,279,2.0,4.0,95,0.17,,,0.63,WUHU216DAVISVP2,2013-09-03 17:45:00,
2013-09-03 13:50:00,77.0,74.8,29.83,NW,312,0.0,4.0,93,0.15,,,0.63,WUHU216DAVISVP2,2013-09-03 17:50:00,
2013-09-03 13:55:00,77.9,75.0,29.82,NW,306,1.0,6.0,91,0.05,,,0.63,WUHU216DAVISVP2,2013-09-03 17:55:00,
2013-09-03 14:00:00,78.1,73.9,29.82,NW,306,3.0,6.0,87,0.02,,,0.63,WUHU216DAVISVP2,2013-09-03 18:00:00,
2013-09-03 14:05:00,78.1,73.3,29.82,WNW,302,3.0,6.0,85,0.00,,,0.63,WUHU216DAVISVP2,2013-09-03 18:05:00,
2013-09-03 14:10:00,77.7,72.9,29.82,NNW,327,2.0,6.0,85,0.00,,,0.63,WUHU216DAVISVP2,2013-09-03 18:10:00,
2013-09-03 14:15:00,78.3,73.8,29.82,NNW,342,3.0,5.0,86,0.00,,,0.63,WUHU216DAVISVP2,2013-09-03 18:15:00,
2013-09-03 14:20:00,79.0,73.5,29.81,West,277,2.0,5.0,83,0.00,,,0.63,WUHU216DAVISVP2,2013-09-03 18:20:00,
2013-09-03 14:25:00,79.8,72.8,29.81,SW,225,1.0,4.0,79,0.00,,,0.63,WUHU216DAVISVP2,2013-09-03 18:25:00,
2013-09-03 14:30:00,80.7,73.0,29.80,NNW,328,4.0,4.0,77,0.00,,,0.63,WUHU216DAVISVP2,2013-09-03 18:30:00,
2013-09-03 14:35:00,81.6,72.9,29.80,WNW,285,0.0,5.0,75,0.00,,,0.63,WUHU216DAVISVP2,2013-09-03 18:35:00,
2013-09-03 14:40:00,83.4,73.0,29.80,WNW,290,3.0,5.0,71,0.00,,,0.63,WUHU216DAVISVP2,2013-09-03 18:40:00,
2013-09-03 14:45:00,83.8,71.9,29.80,WSW,246,0.0,7.0,67,0.00,,,0.63,WUHU216DAVISVP2,2013-09-03 18:45:00,
2013-09-03 14:50:00,84.3,73.3,29.81,West,260,0.0,7.0,69,0.00,,,0.63,WUHU216DAVISVP2,2013-09-03 18:50:00,
2013-09-03 14:55:00,84.1,75.1,29.80,West,260,0.0,7.0,74,0.00,,,0.63,WUHU216DAVISVP2,2013-09-03 18:55:00,
2013-09-03 15:00:00,83.6,75.4,29.80,West,260,0.0,6.0,76,0.00,,,0.63,WUHU216DAVISVP2,2013-09-03 19:00:00,
2013-09-03 15:05:00,83.6,76.5,29.80,West,260,0.0,1.0,79,0.00,,,0.63,WUHU216DAVISVP2,2013-09-03 19:05:00,
2013-09-03 15:10:00,83.4,76.7,29.80,West,260,0.0,1.0,80,0.00,,,0.63,WUHU216DAVISVP2,2013-09-03 19:10:00,
2013-09-03 15:15:00,83.0,76.3,29.80,West,260,0.0,0.0,80,0.00,,,0.63,WUHU216DAVISVP2,2013-09-03 19:15:00,
2013-09-03 15:20:00,82.2,75.9,29.80,West,260,0.0,1.0,81,0.00,,,0.63,WUHU216DAVISVP2,2013-09-03 19:20:00,
2013-09-03 15:25:00,81.4,75.5,29.80,West,260,0.0,1.0,82,0.00,,,0.63,WUHU216DAVISVP2,2013-09-03 19:25:00,
2013-09-03 15:30:00,81.1,76.2,29.79,West,260,0.0,1.0,85,0.00,,,0.63,WUHU216DAVISVP2,2013-09-03 19:30:00,
2013-09-03 15:35:00,80.9,76.3,29.79,West,260,0.0,1.0,86,0.00,,,0.63,WUHU216DAVISVP2,2013-09-03 19:35:00,
2013-09-03 15:40:00,80.7,76.2,29.79,West,260,0.0,0.0,86,0.00,,,0.63,WUHU216DAVISVP2,2013-09-03 19:40:00,
2013-09-03 15:45:00,80.9,76.4,29.79,West,260,0.0,0.0,86,0.00,,,0.63,WUHU216DAVISVP2,2013-09-03 19:45:00,
2013-09-03 15:50:00,80.9,76.4,29.79,West,260,0.0,0.0,86,0.00,,,0.63,WUHU216DAVISVP2,2013-09-03 19:50:00,
2013-09-03 15:55:00,81.1,76.6,29.78,West,260,0.0,1.0,86,0.00,,,0.63,WUHU216DAVISVP2,2013-09-03 19:55:00,
2013-09-03 16:00:00,81.1,76.6,29.79,West,260,0.0,1.0,86,0.00,,,0.63,WUHU216DAVISVP2,2013-09-03 20:00:00,
2013-09-03 16:05:00,81.1,76.2,29.79,West,260,0.0,1.0,85,0.00,,,0.63,WUHU216DAVISVP2,2013-09-03 20:05:00,
2013-09-03 16:10:00,81.1,76.2,29.79,West,260,0.0,1.0,85,0.00,,,0.63,WUHU216DAVISVP2,2013-09-03 20:10:00,
2013-09-03 16:15:00,80.9,75.3,29.79,West,260,0.0,2.0,83,0.00,,,0.63,WUHU216DAVISVP2,2013-09-03 20:15:00,
2013-09-03 16:20:00,80.7,75.5,29.79,South,184,1.0,3.0,84,0.00,,,0.63,WUHU216DAVISVP2,2013-09-03 20:20:00,
2013-09-03 16:25:00,80.9,76.0,29.79,ESE,118,0.0,3.0,85,0.00,,,0.63,WUHU216DAVISVP2,2013-09-03 20:25:00,
2013-09-03 16:30:00,81.2,76.3,29.79,ESE,118,0.0,3.0,85,0.00,,,0.63,WUHU216DAVISVP2,2013-09-03 20:30:00,
2013-09-03 16:35:00,81.6,76.0,29.79,ESE,118,0.0,3.0,83,0.00,,,0.63,WUHU216DAVISVP2,2013-09-03 20:35:00,
2013-09-03 16:40:00,82.4,75.7,29.79,ESE,118,0.0,1.0,80,0.00,,,0.63,WUHU216DAVISVP2,2013-09-03 20:40:00,
2013-09-03 16:45:00,83.4,76.3,29.79,ESE,118,0.0,1.0,79,0.00,,,0.63,WUHU216DAVISVP2,2013-09-03 20:45:00,
2013-09-03 16:50:00,83.8,76.6,29.79,ESE,118,0.0,1.0,79,0.00,,,0.63,WUHU216DAVISVP2,2013-09-03 20:50:00,
2013-09-03 16:55:00,83.6,76.8,29.80,ESE,118,0.0,1.0,80,0.00,,,0.63,WUHU216DAVISVP2,2013-09-03 20:55:00,
2013-09-03 17:00:00,83.4,77.0,29.80,ESE,118,0.0,1.0,81,0.00,,,0.63,WUHU216DAVISVP2,2013-09-03 21:00:00,
2013-09-03 17:05:00,83.0,76.9,29.80,North,355,1.0,3.0,82,0.00,,,0.63,WUHU216DAVISVP2,2013-09-03 21:05:00,
2013-09-03 17:10:00,82.4,76.8,29.80,North,360,0.0,4.0,83,0.00,,,0.63,WUHU216DAVISVP2,2013-09-03 21:10:00,
2013-09-03 17:15:00,82.2,76.9,29.81,North,360,0.0,4.0,84,0.00,,,0.63,WUHU216DAVISVP2,2013-09-03 21:15:00,
2013-09-03 17:20:00,82.0,76.8,29.81,NNE,25,2.0,4.0,84,0.00,,,0.63,WUHU216DAVISVP2,2013-09-03 21:20:00,
2013-09-03 17:25:00,81.4,75.5,29.81,NW,315,0.0,3.0,82,0.00,,,0.63,WUHU216DAVISVP2,2013-09-03 21:25:00,
2013-09-03 17:30:00,80.7,72.4,29.81,South,183,0.0,3.0,76,0.00,,,0.63,WUHU216DAVISVP2,2013-09-03 21:30:00,
2013-09-03 17:35:00,80.7,72.0,29.81,East,80,0.0,3.0,75,0.00,,,0.63,WUHU216DAVISVP2,2013-09-03 21:35:00,
2013-09-03 17:40:00,80.3,73.6,29.82,NNE,14,0.0,4.0,80,0.00,,,0.63,WUHU216DAVISVP2,2013-09-03 21:40:00,
2013-09-03 17:45:00,79.4,72.7,29.82,SW,232,0.0,5.0,80,0.00,,,0.63,WUHU216DAVISVP2,2013-09-03 21:45:00,
2013-09-03 17:50:00,78.8,72.5,29.82,WSW,244,0.0,5.0,81,0.00,,,0.63,WUHU216DAVISVP2,2013-09-03 21:50:00,
2013-09-03 17:55:00,78.5,71.9,29.82,SE,139,1.0,5.0,80,0.00,,,0.63,WUHU216DAVISVP2,2013-09-03 21:55:00,
2013-09-03 18:00:00,78.3,71.7,29.82,ESE,116,0.0,4.0,80,0.00,,,0.63,WUHU216DAVISVP2,2013-09-03 22:00:00,
2013-09-03 18:05:00,78.3,71.7,29.83,SSE,163,0.0,4.0,80,0.00,,,0.63,WUHU216DAVISVP2,2013-09-03 22:05:00,
2013-09-03 18:10:00,78.1,71.2,29.83,SSE,151,0.0,4.0,79,0.00,,,0.63,WUHU216DAVISVP2,2013-09-03 22:10:00,
2013-09-03 18:15:00,78.1,71.5,29.83,SSE,151,0.0,3.0,80,0.00,,,0.63,WUHU216DAVISVP2,2013-09-03 22:15:00,
2013-09-03 18:20:00,78.3,71.7,29.83,SSE,151,0.0,3.0,80,0.00,,,0.63,WUHU216DAVISVP2,2013-09-03 22:20:00,
2013-09-03 18:25:00,78.3,72.4,29.82,SSE,151,0.0,3.0,82,0.00,,,0.63,WUHU216DAVISVP2,2013-09-03 22:25:00,
2013-09-03 18:30:00,78.1,72.6,29.82,SSE,151,0.0,1.0,83,0.00,,,0.63,WUHU216DAVISVP2,2013-09-03 22:30:00,
2013-09-03 18:35:00,78.1,72.5,29.82,SSE,151,0.0,1.0,83,0.00,,,0.63,WUHU216DAVISVP2,2013-09-03 22:35:00,
2013-09-03 18:40:00,78.5,72.2,29.82,SSE,151,0.0,1.0,81,0.00,,,0.63,WUHU216DAVISVP2,2013-09-03 22:40:00,
2013-09-03 18:45:00,78.8,71.7,29.82,SSE,151,0.0,1.0,79,0.00,,,0.63,WUHU216DAVISVP2,2013-09-03 22:45:00,
2013-09-03 18:50:00,79.2,71.9,29.82,NNE,17,0.0,3.0,78,0.00,,,0.63,WUHU216DAVISVP2,2013-09-03 22:50:00,
2013-09-03 18:55:00,79.4,71.7,29.82,NW,324,0.0,3.0,77,0.00,,,0.63,WUHU216DAVISVP2,2013-09-03 22:55:00,
2013-09-03 19:00:00,79.4,72.1,29.82,NW,324,0.0,3.0,78,0.00,,,0.63,WUHU216DAVISVP2,2013-09-03 23:00:00,
2013-09-03 19:05:00,79.4,72.8,29.83,NW,324,0.0,3.0,80,0.00,,,0.63,WUHU216DAVISVP2,2013-09-03 23:05:00,
2013-09-03 19:10:00,79.2,72.2,29.83,NW,324,0.0,1.0,79,0.00,,,0.63,WUHU216DAVISVP2,2013-09-03 23:10:00,
2013-09-03 19:15:00,79.2,72.2,29.83,NW,324,0.0,1.0,79,0.00,,,0.63,WUHU216DAVISVP2,2013-09-03 23:15:00,
2013-09-03 19:20:00,79.2,72.6,29.84,NW,324,0.0,0.0,80,0.00,,,0.63,WUHU216DAVISVP2,2013-09-03 23:20:00,
2013-09-03 19:25:00,78.6,72.0,29.84,NW,324,0.0,0.0,80,0.00,,,0.63,WUHU216DAVISVP2,2013-09-03 23:25:00,
2013-09-03 19:30:00,78.1,72.9,29.84,NW,324,0.0,0.0,84,0.00,,,0.63,WUHU216DAVISVP2,2013-09-03 23:30:00,
2013-09-03 19:35:00,77.4,71.9,29.85,SW,231,0.0,2.0,83,0.00,,,0.63,WUHU216DAVISVP2,2013-09-03 23:35:00,
2013-09-03 19:40:00,77.0,72.2,29.85,NW,322,0.0,2.0,85,0.00,,,0.63,WUHU216DAVISVP2,2013-09-03 23:40:00,
2013-09-03 19:45:00,76.7,72.2,29.85,NW,322,1.0,2.0,86,0.00,,,0.63,WUHU216DAVISVP2,2013-09-03 23:45:00,
2013-09-03 19:50:00,76.3,72.1,29.85,NW,322,0.0,2.0,87,0.00,,,0.63,WUHU216DAVISVP2,2013-09-03 23:50:00,
2013-09-03 19:55:00,76.1,72.0,29.85,NW,322,0.0,2.0,87,0.00,,,0.63,WUHU216DAVISVP2,2013-09-03 23:55:00,
2013-09-03 20:00:00,76.0,72.2,29.85,NW,322,0.0,2.0,88,0.00,,,0.63,WUHU216DAVISVP2,2013-09-04 00:00:00,
2013-09-03 20:05:00,75.6,71.8,29.85,NW,322,0.0,1.0,88,0.00,,,0.63,WUHU216DAVISVP2,2013-09-04 00:05:00,
2013-09-03 20:10:00,75.3,71.8,29.86,NW,322,0.0,1.0,89,0.00,,,0.63,WUHU216DAVISVP2,2013-09-04 00:10:00,
2013-09-03 20:15:00,74.9,71.4,29.86,NW,322,0.0,1.0,89,0.00,,,0.63,WUHU216DAVISVP2,2013-09-04 00:15:00,
2013-09-03 20:20:00,74.6,71.5,29.86,NW,322,0.0,1.0,90,0.00,,,0.63,WUHU216DAVISVP2,2013-09-04 00:20:00,
2013-09-03 20:25:00,74.4,71.3,29.86,NW,322,0.0,1.0,90,0.00,,,0.63,WUHU216DAVISVP2,2013-09-04 00:25:00,
2013-09-03 20:30:00,74.2,71.1,29.86,NW,322,0.0,1.0,90,0.00,,,0.63,WUHU216DAVISVP2,2013-09-04 00:30:00,
2013-09-03 20:35:00,74.0,71.2,29.86,NW,322,1.0,1.0,91,0.00,,,0.63,WUHU216DAVISVP2,2013-09-04 00:35:00,
2013-09-03 20:40:00,73.9,71.1,29.87,NW,322,0.0,1.0,91,0.00,,,0.63,WUHU216DAVISVP2,2013-09-04 00:40:00,
2013-09-03 20:45:00,73.5,70.7,29.87,NW,322,0.0,1.0,91,0.00,,,0.63,WUHU216DAVISVP2,2013-09-04 00:45:00,
2013-09-03 20:50:00,73.3,70.8,29.87,NW,322,0.0,1.0,92,0.00,,,0.63,WUHU216DAVISVP2,2013-09-04 00:50:00,
2013-09-03 20:55:00,73.2,70.7,29.87,NW,322,0.0,0.0,92,0.00,,,0.63,WUHU216DAVISVP2,2013-09-04 00:55:00,
2013-09-03 21:00:00,73.0,70.5,29.87,NW,322,0.0,0.0,92,0.00,,,0.63,WUHU216DAVISVP2,2013-09-04 01:00:00,
2013-09-03 21:06:00,72.8,70.3,29.88,NW,322,0.0,0.0,92,0.00,,,0.63,WUHU216DAVISVP2,2013-09-04 01:06:00,
2013-09-03 21:10:00,72.9,70.4,29.89,North,0,0.0,0.0,92,0.00,,,0.63,WUHU216DAVISVP2,2013-09-04 01:10:00,
2013-09-03 21:11:00,72.7,70.2,29.89,NW,322,0.0,0.0,92,0.00,,,0.63,WUHU216DAVISVP2,2013-09-04 01:11:00,
2013-09-03 21:16:00,72.5,70.0,29.89,NW,322,0.0,0.0,92,0.00,,,0.63,WUHU216DAVISVP2,2013-09-04 01:16:00,
2013-09-03 21:20:00,72.5,70.4,29.89,North,0,0.0,0.0,93,0.00,,,0.63,WUHU216DAVISVP2,2013-09-04 01:20:00,
2013-09-03 21:21:00,72.3,70.2,29.89,NW,322,0.0,0.0,93,0.00,,,0.63,WUHU216DAVISVP2,2013-09-04 01:21:00,
2013-09-03 21:26:00,72.3,70.1,29.89,NW,322,0.0,0.0,93,0.00,,,0.63,WUHU216DAVISVP2,2013-09-04 01:26:00,
2013-09-03 21:30:00,72.2,70.1,29.90,North,0,0.0,0.0,93,0.00,,,0.63,WUHU216DAVISVP2,2013-09-04 01:30:00,
2013-09-03 21:31:00,72.1,69.9,29.90,NW,322,0.0,0.0,93,0.00,,,0.63,WUHU216DAVISVP2,2013-09-04 01:31:00,
2013-09-03 21:36:00,72.0,70.1,29.89,NW,322,0.0,0.0,94,0.00,,,0.63,WUHU216DAVISVP2,2013-09-04 01:36:00,
2013-09-03 21:40:00,72.0,70.2,29.89,North,0,0.0,0.0,94,0.00,,,0.63,WUHU216DAVISVP2,2013-09-04 01:40:00,
2013-09-03 21:41:00,71.8,69.9,29.90,NW,322,0.0,0.0,94,0.00,,,0.63,WUHU216DAVISVP2,2013-09-04 01:41:00,
2013-09-03 21:46:00,71.6,69.8,29.90,NW,322,0.0,0.0,94,0.00,,,0.63,WUHU216DAVISVP2,2013-09-04 01:46:00,
2013-09-03 21:50:00,71.7,69.9,29.90,North,0,0.0,0.0,94,0.00,,,0.63,WUHU216DAVISVP2,2013-09-04 01:50:00,
2013-09-03 21:51:00,71.5,69.7,29.90,NW,322,0.0,0.0,94,0.00,,,0.63,WUHU216DAVISVP2,2013-09-04 01:51:00,
2013-09-03 21:56:00,71.5,69.7,29.90,NW,322,0.0,0.0,94,0.00,,,0.63,WUHU216DAVISVP2,2013-09-04 01:56:00,
2013-09-03 22:00:00,71.4,69.6,29.90,North,0,0.0,0.0,94,0.00,,,0.63,WUHU216DAVISVP2,2013-09-04 02:00:00,
2013-09-03 22:01:00,71.3,69.5,29.90,NW,322,0.0,0.0,94,0.00,,,0.63,WUHU216DAVISVP2,2013-09-04 02:01:00,
2013-09-03 22:06:00,71.1,69.3,29.90,NW,322,0.0,0.0,94,0.00,,,0.63,WUHU216DAVISVP2,2013-09-04 02:06:00,
2013-09-03 22:10:00,71.1,69.6,29.90,North,0,0.0,0.0,95,0.00,,,0.63,WUHU216DAVISVP2,2013-09-04 02:10:00,
2013-09-03 22:11:00,71.1,69.6,29.91,NW,322,0.0,0.0,95,0.00,,,0.63,WUHU216DAVISVP2,2013-09-04 02:11:00,
2013-09-03 22:16:00,70.9,69.4,29.91,NW,322,0.0,0.0,95,0.00,,,0.63,WUHU216DAVISVP2,2013-09-04 02:16:00,
2013-09-03 22:20:00,70.9,69.4,29.91,North,0,0.0,0.0,95,0.00,,,0.63,WUHU216DAVISVP2,2013-09-04 02:20:00,
2013-09-03 22:21:00,70.8,69.3,29.91,NW,322,0.0,0.0,95,0.00,,,0.63,WUHU216DAVISVP2,2013-09-04 02:21:00,
2013-09-03 22:26:00,70.8,69.3,29.91,NW,322,0.0,0.0,95,0.00,,,0.63,WUHU216DAVISVP2,2013-09-04 02:26:00,
2013-09-03 22:30:00,70.8,69.3,29.91,North,0,0.0,0.0,95,0.00,,,0.63,WUHU216DAVISVP2,2013-09-04 02:30:00,
2013-09-03 22:31:00,70.8,69.3,29.91,NW,322,0.0,0.0,95,0.00,,,0.63,WUHU216DAVISVP2,2013-09-04 02:31:00,
2013-09-03 22:36:00,70.6,69.1,29.91,NW,322,0.0,0.0,95,0.00,,,0.63,WUHU216DAVISVP2,2013-09-04 02:36:00,
2013-09-03 22:40:00,70.7,69.2,29.91,North,0,0.0,0.0,95,0.00,,,0.63,WUHU216DAVISVP2,2013-09-04 02:40:00,
2013-09-03 22:41:00,70.6,69.1,29.91,NW,322,0.0,0.0,95,0.00,,,0.63,WUHU216DAVISVP2,2013-09-04 02:41:00,
2013-09-03 22:46:00,70.6,69.4,29.91,NW,322,0.0,0.0,96,0.00,,,0.63,WUHU216DAVISVP2,2013-09-04 02:46:00,
2013-09-03 22:50:00,70.5,69.3,29.92,North,0,0.0,0.0,96,0.00,,,0.63,WUHU216DAVISVP2,2013-09-04 02:50:00,
2013-09-03 22:51:00,70.4,69.2,29.92,NW,322,0.0,0.0,96,0.00,,,0.63,WUHU216DAVISVP2,2013-09-04 02:51:00,
2013-09-03 22:56:00,70.3,69.1,29.92,NW,322,0.0,0.0,96,0.00,,,0.63,WUHU216DAVISVP2,2013-09-04 02:56:00,
2013-09-03 23:00:00,70.3,69.1,29.91,North,0,0.0,0.0,96,0.00,,,0.63,WUHU216DAVISVP2,2013-09-04 03:00:00,
2013-09-03 23:01:00,70.3,69.1,29.91,NW,322,0.0,0.0,96,0.00,,,0.63,WUHU216DAVISVP2,2013-09-04 03:01:00,
2013-09-03 23:06:00,70.1,68.9,29.92,NW,322,0.0,0.0,96,0.00,,,0.63,WUHU216DAVISVP2,2013-09-04 03:06:00,
2013-09-03 23:10:00,70.1,68.9,29.92,North,0,0.0,0.0,96,0.00,,,0.63,WUHU216DAVISVP2,2013-09-04 03:10:00,
2013-09-03 23:11:00,69.9,68.7,29.92,NW,322,0.0,0.0,96,0.00,,,0.63,WUHU216DAVISVP2,2013-09-04 03:11:00,
2013-09-03 23:16:00,69.8,68.6,29.92,NW,322,0.0,0.0,96,0.00,,,0.63,WUHU216DAVISVP2,2013-09-04 03:16:00,
2013-09-03 23:20:00,69.8,68.6,29.92,North,0,0.0,0.0,96,0.00,,,0.63,WUHU216DAVISVP2,2013-09-04 03:20:00,
2013-09-03 23:21:00,69.8,68.6,29.92,NW,322,0.0,0.0,96,0.00,,,0.63,WUHU216DAVISVP2,2013-09-04 03:21:00,
2013-09-03 23:26:00,69.6,68.4,29.92,NW,322,0.0,0.0,96,0.00,,,0.63,WUHU216DAVISVP2,2013-09-04 03:26:00,
2013-09-03 23:30:00,69.7,68.5,29.92,North,0,0.0,0.0,96,0.00,,,0.63,WUHU216DAVISVP2,2013-09-04 03:30:00,
2013-09-03 23:31:00,69.6,68.4,29.92,NW,322,0.0,0.0,96,0.00,,,0.63,WUHU216DAVISVP2,2013-09-04 03:31:00,
2013-09-03 23:36:00,69.6,68.4,29.92,NW,322,0.0,0.0,96,0.00,,,0.63,WUHU216DAVISVP2,2013-09-04 03:36:00,
2013-09-03 23:40:00,69.7,68.5,29.92,North,0,0.0,0.0,96,0.00,,,0.63,WUHU216DAVISVP2,2013-09-04 03:40:00,
2013-09-03 23:41:00,69.8,68.6,29.92,NW,322,0.0,0.0,96,0.00,,,0.63,WUHU216DAVISVP2,2013-09-04 03:41:00,
2013-09-03 23:46:00,69.6,68.4,29.92,NW,322,0.0,0.0,96,0.00,,,0.63,WUHU216DAVISVP2,2013-09-04 03:46:00,
2013-09-03 23:50:00,69.6,68.4,29.93,North,0,0.0,0.0,96,0.00,,,0.63,WUHU216DAVISVP2,2013-09-04 03:50:00,
2013-09-03 23:51:00,69.4,68.2,29.93,NW,322,0.0,0.0,96,0.00,,,0.63,WUHU216DAVISVP2,2013-09-04 03:51:00,
2013-09-03 23:56:00,69.6,68.4,29.93,NW,322,0.0,0.0,96,0.00,,,0.63,WUHU216DAVISVP2,2013-09-04 03:56:00,